createdAt,value
2023-02-04T00:01:27.047Z,1.21
2023-02-04T00:03:54.351Z,1.58
2023-02-04T00:06:24.047Z,2.22
2023-02-04T00:08:54.334Z,2.40
2023-02-04T00:11:21.656Z,2.24
2023-02-04T00:13:49.628Z,2.01
2023-02-04T00:16:20.348Z,1.77
2023-02-04T00:18:48.390Z,1.57
2023-02-04T00:21:15.588Z,1.36
2023-02-04T00:23:46.002Z,1.68
2023-02-04T00:26:16.307Z,2.27
2023-02-04T00:28:46.211Z,2.39
2023-02-04T00:31:16.635Z,2.21
2023-02-04T00:33:46.617Z,1.96
2023-02-04T00:36:14.005Z,1.70
2023-02-04T00:38:41.630Z,1.46
2023-02-04T00:41:08.958Z,1.24
2023-02-04T00:43:36.622Z,1.68
2023-02-04T00:46:05.768Z,2.37
2023-02-04T00:48:42.361Z,2.54
2023-02-04T00:51:12.551Z,2.40
2023-02-04T00:53:48.556Z,2.14
2023-02-04T00:56:27.304Z,1.90
2023-02-04T00:58:54.550Z,1.66
2023-02-04T01:01:24.543Z,1.49
2023-02-04T01:03:51.678Z,1.97
2023-02-04T01:06:40.542Z,2.58
2023-02-04T01:09:08.696Z,2.63
2023-02-04T01:11:36.590Z,2.40
2023-02-04T04:16:22.193Z,-1.51
2023-02-04T04:18:59.707Z,-0.08
2023-02-04T04:22:11.993Z,1.31
2023-02-04T04:24:39.484Z,1.99
2023-02-04T04:27:12.146Z,1.95
2023-02-04T04:30:05.849Z,1.72
2023-02-04T04:32:39.117Z,1.50
2023-02-04T04:35:09.355Z,2.00
2023-02-04T04:37:39.875Z,2.51
2023-02-04T04:40:12.017Z,2.56
2023-02-04T04:42:39.603Z,2.36
2023-02-04T04:45:11.063Z,2.07
2023-02-04T04:48:03.056Z,1.74
2023-02-04T04:50:40.572Z,1.43
2023-02-04T04:53:16.734Z,1.94
2023-02-04T04:55:57.220Z,2.50
2023-02-04T04:58:33.236Z,2.44
2023-02-04T05:01:11.198Z,2.12
2023-02-04T05:03:48.486Z,1.70
2023-02-04T05:06:28.507Z,1.28
2023-02-04T05:09:16.756Z,0.97
2023-02-04T05:11:47.152Z,1.55
2023-02-04T05:14:16.904Z,2.04
2023-02-04T05:17:00.105Z,1.81
2023-02-04T05:19:42.511Z,1.62
2023-02-04T05:22:18.203Z,1.39
2023-02-04T05:24:58.298Z,1.13
2023-02-04T05:27:42.883Z,0.88
2023-02-04T05:30:41.774Z,1.46
2023-02-04T05:33:37.992Z,2.05
2023-02-04T05:36:31.855Z,1.95
2023-02-04T05:39:09.884Z,1.67
2023-02-04T05:41:57.714Z,1.05
2023-02-04T05:44:36.514Z,0.82
2023-02-04T05:48:00.731Z,0.37
2023-02-04T05:50:45.070Z,0.78
2023-02-04T05:54:13.159Z,1.20
2023-02-04T05:56:46.312Z,1.02
2023-02-04T05:59:24.061Z,0.68
2023-02-04T06:01:54.694Z,0.55
2023-02-04T06:04:44.825Z,0.33
2023-02-04T06:07:28.321Z,0.21
2023-02-04T06:10:00.339Z,1.02
2023-02-04T06:12:30.267Z,1.60
2023-02-04T06:15:01.617Z,1.42
2023-02-04T06:17:52.587Z,1.19
2023-02-04T06:20:20.914Z,1.06
2023-02-04T06:23:39.279Z,0.65
2023-02-04T06:26:12.418Z,0.46
2023-02-04T06:28:45.112Z,1.26
2023-02-04T06:31:53.754Z,1.77
2023-02-04T06:34:21.292Z,1.62
2023-02-04T06:37:16.178Z,1.25
2023-02-04T06:39:46.660Z,0.91
2023-02-04T06:42:14.031Z,0.63
2023-02-04T06:44:53.030Z,0.41
2023-02-04T06:47:30.588Z,0.26
2023-02-04T06:50:12.290Z,0.80
2023-02-04T06:53:12.333Z,1.24
2023-02-04T06:56:01.018Z,1.29
2023-02-04T06:58:33.939Z,0.95
2023-02-04T07:01:11.948Z,0.79
2023-02-04T07:03:42.689Z,0.63
2023-02-04T07:06:30.284Z,0.35
2023-02-04T07:09:19.348Z,0.92
2023-02-04T07:11:46.802Z,1.07
2023-02-04T07:14:19.004Z,0.86
2023-02-04T07:16:46.672Z,0.98
2023-02-04T07:19:14.088Z,0.78
2023-02-04T07:21:53.982Z,0.42
2023-02-04T07:24:24.450Z,0.20
2023-02-04T07:26:57.388Z,-0.04
2023-02-04T07:29:58.815Z,0.42
2023-02-04T07:32:32.789Z,1.01
2023-02-04T07:35:12.600Z,0.97
2023-02-04T07:38:08.525Z,0.73
2023-02-04T07:40:39.400Z,0.49
2023-02-04T07:43:17.506Z,0.39
2023-02-04T07:46:08.052Z,-0.07
2023-02-04T07:48:45.849Z,-0.22
2023-02-04T07:51:23.271Z,0.73
2023-02-04T07:53:57.690Z,1.36
2023-02-04T07:56:39.208Z,1.00
2023-02-04T07:59:09.834Z,0.54
2023-02-04T08:01:55.809Z,0.40
2023-02-04T08:04:29.419Z,0.06
2023-02-04T08:07:16.948Z,-0.05
2023-02-04T08:09:44.199Z,0.01
2023-02-04T08:12:20.699Z,0.87
2023-02-04T08:14:50.642Z,1.41
2023-02-04T08:17:21.696Z,1.32
2023-02-04T08:19:51.273Z,0.83
2023-02-04T08:22:20.674Z,1.00
2023-02-04T08:24:50.188Z,1.00
2023-02-04T08:27:17.194Z,0.90
2023-02-04T08:29:50.535Z,0.58
2023-02-04T08:32:20.954Z,1.06
2023-02-04T08:34:48.902Z,1.47
2023-02-04T08:37:16.137Z,1.56
2023-02-04T08:40:03.846Z,1.48
2023-02-04T08:42:31.402Z,1.16
2023-02-04T08:44:58.790Z,0.83
2023-02-04T08:47:28.270Z,0.51
2023-02-04T08:49:58.627Z,0.45
2023-02-04T08:52:25.958Z,0.82
2023-02-04T08:54:53.279Z,1.32
2023-02-04T08:57:20.302Z,1.60
2023-02-04T08:59:50.238Z,0.83
2023-02-04T09:02:19.672Z,0.86
2023-02-04T09:04:51.679Z,0.83
2023-02-04T09:07:19.419Z,0.54
2023-02-04T09:09:49.792Z,0.64
2023-02-04T09:12:22.116Z,1.45
2023-02-04T09:14:49.580Z,2.26
2023-02-04T09:17:16.828Z,2.40
2023-02-04T09:19:44.288Z,1.97
2023-02-04T09:22:13.269Z,1.87
2023-02-04T09:24:40.440Z,1.66
2023-02-04T09:27:07.946Z,1.55
2023-02-04T09:29:38.663Z,1.51
2023-02-04T09:32:28.815Z,1.42
2023-02-04T09:35:02.201Z,2.11
2023-02-04T09:37:40.281Z,2.60
2023-02-04T09:40:12.360Z,2.47
2023-02-04T09:43:30.121Z,2.18
2023-02-04T09:46:20.809Z,1.71
2023-02-04T09:49:08.727Z,1.46
2023-02-04T09:51:44.783Z,1.10
2023-02-04T09:54:22.376Z,0.99
2023-02-04T09:56:52.784Z,0.92
2023-02-04T09:59:25.996Z,1.33
2023-02-04T10:02:07.885Z,1.91
2023-02-04T12:24:05.139Z,-0.29
2023-02-04T12:26:35.717Z,0.85
2023-02-04T12:29:06.095Z,1.74
2023-02-04T12:31:56.665Z,2.10
2023-02-04T12:34:27.527Z,2.05
2023-02-04T12:36:54.882Z,2.02
2023-02-04T12:39:22.435Z,1.91
2023-02-04T12:41:52.371Z,1.74
2023-02-04T12:44:19.821Z,1.56
2023-02-04T12:46:47.032Z,1.41
2023-02-04T12:49:14.724Z,1.28
2023-02-04T12:51:52.147Z,1.12
2023-02-04T12:54:29.245Z,1.26
2023-02-04T12:56:58.397Z,1.93
2023-02-04T12:59:26.141Z,2.08
2023-02-04T13:01:56.329Z,1.94
2023-02-04T13:04:23.793Z,1.78
2023-02-04T13:06:53.951Z,1.62
2023-02-04T13:09:21.796Z,1.51
2023-02-04T13:11:57.932Z,1.43
2023-02-04T13:14:33.646Z,1.32
2023-02-04T13:17:06.947Z,1.23
2023-02-04T13:19:34.098Z,1.13
2023-02-04T13:22:29.139Z,1.08
2023-02-04T13:25:09.628Z,1.03
2023-02-04T13:27:39.625Z,1.01
2023-02-04T13:30:07.928Z,0.98
2023-02-04T13:32:41.917Z,0.94
2023-02-04T13:35:17.286Z,0.93
2023-02-04T13:37:56.435Z,0.97
2023-02-04T13:40:34.447Z,1.01
2023-02-04T13:43:04.918Z,1.03
2023-02-04T13:45:36.153Z,1.00
2023-02-04T13:48:03.762Z,1.03
2023-02-04T13:50:32.192Z,1.02
2023-02-04T13:53:34.906Z,0.98
2023-02-04T13:56:02.405Z,0.88
2023-02-04T13:58:38.545Z,0.83
2023-02-04T14:01:17.389Z,0.76
2023-02-04T14:03:45.192Z,0.72
2023-02-04T14:06:15.169Z,0.69
2023-02-04T14:08:52.715Z,0.66
2023-02-04T14:11:53.259Z,0.63
2023-02-04T14:14:33.594Z,0.54
2023-02-04T14:17:12.641Z,0.52
2023-02-04T14:19:56.593Z,0.42
2023-02-04T14:22:49.226Z,0.37
2023-02-04T14:25:28.457Z,0.35
2023-02-04T14:28:26.172Z,0.32
2023-02-04T14:30:54.855Z,0.26
2023-02-04T14:33:31.271Z,0.23
2023-02-04T14:36:09.696Z,0.20
2023-02-04T14:38:52.244Z,0.18
2023-02-04T14:41:59.025Z,0.13
2023-02-04T14:44:32.664Z,0.06
2023-02-04T14:47:15.934Z,0.00
2023-02-04T14:49:51.507Z,-0.06
2023-02-04T14:52:32.017Z,-0.11
2023-02-04T14:55:13.092Z,-0.16
2023-02-04T14:57:46.238Z,-0.21
2023-02-04T15:00:32.288Z,-0.30
2023-02-04T15:03:15.503Z,-0.37
2023-02-04T15:06:00.812Z,-0.46
2023-02-04T15:08:33.920Z,-0.56
2023-02-04T15:11:34.627Z,-0.67
2023-02-04T15:14:27.145Z,-0.78
2023-02-04T15:17:03.165Z,-0.88
2023-02-04T15:20:26.243Z,-0.92
2023-02-04T15:23:20.005Z,-1.01
2023-02-04T15:26:22.636Z,-1.07
2023-02-04T15:29:13.156Z,-1.15
2023-02-04T15:31:46.460Z,-1.16
2023-02-04T15:34:16.690Z,-1.18
2023-02-04T15:36:49.334Z,-1.21
2023-02-04T15:39:35.050Z,-1.23
2023-02-04T15:42:03.258Z,-1.27
2023-02-04T15:44:30.909Z,-1.28
2023-02-04T15:47:02.357Z,-1.30
2023-02-04T15:49:39.253Z,-1.33
2023-02-04T15:52:24.203Z,-1.34
2023-02-04T15:54:52.734Z,-1.36
2023-02-04T15:57:25.680Z,-1.37
2023-02-04T16:00:07.764Z,-1.38
2023-02-04T16:02:35.849Z,-1.35
2023-02-04T16:05:03.311Z,-0.66
2023-02-04T16:07:33.335Z,0.03
2023-02-04T16:10:00.898Z,0.22
2023-02-04T16:12:29.715Z,0.15
2023-02-04T16:15:00.329Z,-0.07
2023-02-04T16:17:29.121Z,-0.20
2023-02-04T16:19:58.119Z,-0.38
2023-02-04T16:22:28.207Z,-0.55
2023-02-04T16:24:55.738Z,-0.70
2023-02-04T16:27:32.029Z,-0.78
2023-02-04T16:29:59.017Z,-0.85
2023-02-04T16:32:33.863Z,-0.92
2023-02-04T16:35:21.548Z,-1.01
2023-02-04T16:37:48.962Z,-1.09
2023-02-04T16:40:16.559Z,-1.13
2023-02-04T16:42:44.019Z,-1.16
2023-02-04T16:45:11.840Z,-1.19
2023-02-04T16:47:39.426Z,-1.25
2023-02-04T16:50:10.575Z,-1.30
2023-02-04T16:52:40.238Z,-1.33
2023-02-04T16:55:07.684Z,-1.40
2023-02-04T16:57:36.269Z,-1.48
2023-02-04T17:00:07.165Z,-1.55
2023-02-04T17:02:40.390Z,-1.63
2023-02-04T17:05:08.253Z,-1.67
2023-02-04T17:07:36.087Z,-1.75
2023-02-04T17:10:04.654Z,-1.75
2023-02-04T17:12:39.191Z,-1.77
2023-02-04T17:15:16.471Z,-1.78
2023-02-04T17:18:20.237Z,-1.80
2023-02-04T17:21:43.711Z,-1.87
2023-02-04T17:24:43.576Z,-1.95
2023-02-04T17:27:50.727Z,-2.00
2023-02-04T17:30:26.647Z,-2.03
2023-02-04T17:33:03.473Z,-2.04
2023-02-04T17:35:36.436Z,-2.07
2023-02-04T17:38:27.027Z,-2.11
2023-02-04T17:40:56.197Z,-2.13
2023-02-04T17:43:26.809Z,-2.17
2023-02-04T17:46:17.594Z,-2.19
2023-02-04T17:48:47.533Z,-2.20
2023-02-04T17:51:15.583Z,-2.22
2023-02-04T17:53:43.086Z,-2.24
2023-02-04T17:56:15.859Z,-2.24
2023-02-04T17:58:46.037Z,-2.23
2023-02-04T18:01:19.304Z,-2.25
2023-02-04T18:03:47.324Z,-2.24
2023-02-04T18:06:22.715Z,-2.24
2023-02-04T18:09:01.778Z,-2.25
2023-02-04T18:11:37.980Z,-2.25
2023-02-04T18:14:24.565Z,-2.26
2023-02-04T18:16:57.375Z,-2.27
2023-02-04T18:19:28.968Z,-2.28
2023-02-04T18:21:56.462Z,-2.28
2023-02-04T18:24:45.194Z,-2.29
2023-02-04T18:27:24.560Z,-2.31
2023-02-04T18:30:01.604Z,-2.27
2023-02-04T18:32:36.638Z,-2.29
2023-02-04T18:35:35.847Z,-2.29
2023-02-04T18:38:22.959Z,-2.31
2023-02-04T18:41:02.548Z,-2.35
2023-02-04T18:43:32.712Z,-2.38
2023-02-04T18:46:02.658Z,-2.38
2023-02-04T18:48:55.333Z,-1.75
2023-02-04T18:51:51.568Z,-0.70
2023-02-04T18:54:37.970Z,-0.57
2023-02-04T18:57:16.042Z,-0.77
2023-02-04T20:35:31.942Z,-4.01
2023-02-04T20:38:00.907Z,-3.62
2023-02-04T20:40:42.694Z,-3.51
2023-02-04T20:43:14.149Z,-3.42
2023-02-04T20:45:52.789Z,-3.32
2023-02-04T20:48:25.650Z,-2.58
2023-02-04T20:51:01.610Z,-1.34
2023-02-04T20:53:59.279Z,-0.95
2023-02-04T20:56:29.771Z,-1.07
2023-02-04T20:59:12.453Z,-1.30
2023-02-04T21:01:49.762Z,-1.56
2023-02-04T21:04:54.125Z,-1.73
2023-02-04T21:07:30.661Z,-1.93
2023-02-04T21:10:05.520Z,-2.08
2023-02-04T21:12:32.888Z,-2.23
2023-02-04T21:15:07.988Z,-2.33
2023-02-04T21:18:01.069Z,-2.41
2023-02-04T21:20:43.175Z,-2.48
2023-02-04T21:23:13.476Z,-2.54
2023-02-04T21:25:40.694Z,-2.59
2023-02-04T21:28:08.241Z,-2.63
2023-02-04T21:30:44.885Z,-2.68
2023-02-04T21:33:13.657Z,-2.74
2023-02-04T21:35:44.330Z,-2.82
2023-02-04T21:38:21.062Z,-2.91
2023-02-04T21:40:56.459Z,-3.07
2023-02-04T21:43:54.182Z,-3.19
2023-02-04T21:46:30.892Z,-3.25
2023-02-04T21:48:58.363Z,-3.33
2023-02-04T21:51:26.812Z,-3.36
2023-02-04T21:54:06.938Z,-3.36
2023-02-04T21:56:39.561Z,-3.31
2023-02-04T21:59:24.424Z,-3.29
2023-02-04T22:02:12.458Z,-3.27
2023-02-04T22:04:58.944Z,-2.57
2023-02-04T22:07:30.316Z,-1.38
2023-02-04T22:10:00.220Z,-1.06
2023-02-04T22:12:35.531Z,-1.17
2023-02-04T22:15:22.643Z,-1.43
2023-02-04T22:17:53.755Z,-1.72
2023-02-04T22:20:24.049Z,-1.90
2023-02-04T22:22:54.628Z,-2.09
2023-02-04T22:25:22.307Z,-2.25
2023-02-04T22:27:56.879Z,-2.38
2023-02-04T22:30:47.769Z,-2.48
2023-02-04T22:34:00.398Z,-2.60
2023-02-04T22:37:51.121Z,-2.69
2023-02-04T22:41:47.899Z,-2.82
2023-02-04T22:45:26.016Z,-2.88
2023-02-04T22:48:39.337Z,-2.77
2023-02-04T22:51:28.224Z,-1.80
2023-02-04T22:54:20.345Z,-0.96
2023-02-04T22:57:00.623Z,-0.90
2023-02-04T22:59:36.996Z,-1.16
2023-02-04T23:02:36.285Z,-1.45
2023-02-04T23:05:06.174Z,-1.70
2023-02-04T23:07:39.887Z,-1.87
2023-02-04T23:10:19.505Z,-2.03
2023-02-04T23:13:10.726Z,-2.21
2023-02-04T23:15:49.931Z,-2.36
2023-02-04T23:18:56.213Z,-2.44
2023-02-04T23:21:42.098Z,-2.53
2023-02-04T23:24:12.383Z,-2.65
2023-02-04T23:26:45.700Z,-2.08
2023-02-04T23:29:39.757Z,-1.32
2023-02-04T23:32:14.826Z,-1.24
2023-02-04T23:35:02.225Z,-1.49
2023-02-04T23:37:52.666Z,-1.83
2023-02-04T23:40:32.989Z,-2.20
2023-02-04T23:43:00.496Z,-2.42
2023-02-04T23:45:33.355Z,-2.70
2023-02-04T23:48:09.897Z,-2.92
2023-02-04T23:50:59.759Z,-3.08
2023-02-04T23:53:40.572Z,-3.20
2023-02-04T23:56:13.754Z,-3.33
2023-02-04T23:59:03.308Z,-3.41
